Time;durP1;ratioP1;P1;durP2;ratioP2;P2;SDS_P1;SDS_P2;PMS_P1;PMS_P2;Temp;Humidity;BMP_temperature;BMP_pressure;BME280_temperature;BME280_humidity;BME280_pressure;Samples;Min_cycle;Max_cycle;Signal;HPM_P1;HPM_P2
2022/05/27 00:04:39;;;;;;;6.53;0.83;;;12.10;1.00;;;;;;10355091;28;20202;-79
2022/05/27 00:10:01;;;;;;;5.53;1.47;;;12.00;1.00;;;;;;10355350;28;20202;-79
2022/05/27 00:15:22;;;;;;;3.10;1.02;;;12.00;1.00;;;;;;10327737;28;20290;-79
2022/05/27 00:20:44;;;;;;;2.58;0.80;;;12.10;1.00;;;;;;10355172;28;20189;-79
2022/05/27 00:26:06;;;;;;;4.78;1.38;;;12.10;1.00;;;;;;10355995;28;20276;-79
2022/05/27 00:31:27;;;;;;;3.85;1.30;;;12.10;1.00;;;;;;10353578;28;20194;-79
2022/05/27 00:36:48;;;;;;;3.33;1.00;;;12.10;1.00;;;;;;10354517;28;20240;-79
2022/05/27 00:42:09;;;;;;;11.20;0.90;;;12.10;1.00;;;;;;10354573;28;20190;-79
2022/05/27 00:47:35;;;;;;;5.40;1.10;;;11.90;1.00;;;;;;10354624;28;20212;-78
2022/05/27 00:52:57;;;;;;;4.00;1.23;;;11.80;1.00;;;;;;10354105;28;20209;-79
2022/05/27 00:58:24;;;;;;;5.30;1.27;;;11.70;12.60;;;;;;10326000;28;20415;-79
2022/05/27 01:03:47;;;;;;;2.30;1.03;;;11.60;44.20;;;;;;10340346;28;20275;-79
2022/05/27 01:09:08;;;;;;;4.90;1.57;;;11.60;64.00;;;;;;10353921;28;20204;-79
2022/05/27 01:14:54;;;;;;;4.57;0.83;;;11.50;79.70;;;;;;10353656;28;20247;-79
2022/05/27 01:20:28;;;;;;;2.63;0.97;;;11.50;64.20;;;;;;10339864;28;20409;-79
2022/05/27 01:25:58;;;;;;;3.70;0.90;;;11.30;56.60;;;;;;10339923;28;20201;-79
2022/05/27 01:31:39;;;;;;;1.20;0.53;;;11.30;41.70;;;;;;10311283;28;20205;-80
2022/05/27 01:37:21;;;;;;;3.00;0.80;;;11.10;87.70;;;;;;10331858;28;20244;-79
2022/05/27 01:43:05;;;;;;;3.43;0.77;;;11.00;94.10;;;;;;10337962;28;20381;-80
2022/05/27 01:48:46;;;;;;;3.87;1.00;;;10.80;99.90;;;;;;10330601;28;20561;-79
2022/05/27 01:54:11;;;;;;;2.70;0.70;;;10.70;99.90;;;;;;10320537;28;20248;-79
2022/05/27 01:59:43;;;;;;;3.33;1.03;;;10.70;99.90;;;;;;10355200;28;20451;-79
2022/05/27 02:05:12;;;;;;;2.70;0.73;;;10.70;99.90;;;;;;10357724;28;20244;-80
2022/05/27 02:11:00;;;;;;;2.07;0.87;;;10.70;99.90;;;;;;10357732;28;20288;-81
2022/05/27 02:16:27;;;;;;;1.93;0.63;;;10.70;99.90;;;;;;10327257;28;20259;-80
2022/05/27 02:21:59;;;;;;;2.37;0.67;;;10.70;99.90;;;;;;10340729;28;20209;-80
2022/05/27 02:27:39;;;;;;;3.40;0.80;;;10.60;99.90;;;;;;10355444;28;20470;-79
2022/05/27 02:38:51;;;;;;;0.67;0.50;;;10.60;99.90;;;;;;10344850;28;20242;-79
2022/05/27 02:44:27;;;;;;;2.70;1.67;;;10.60;99.90;;;;;;10358362;28;20392;-80
2022/05/27 02:50:01;;;;;;;3.43;1.20;;;10.60;99.90;;;;;;10358598;28;20392;-79
2022/05/27 02:55:48;;;;;;;3.03;1.33;;;10.60;99.90;;;;;;10359094;28;20223;-79
2022/05/27 03:01:09;;;;;;;1.70;0.90;;;10.60;99.90;;;;;;10357259;28;20193;-79
2022/05/27 03:06:39;;;;;;;3.23;1.20;;;10.60;99.90;;;;;;10306476;28;20209;-79
2022/05/27 03:12:05;;;;;;;3.70;1.57;;;10.60;99.90;;;;;;10317424;28;20198;-79
2022/05/27 03:18:04;;;;;;;1.37;0.80;;;10.60;99.90;;;;;;10303270;28;20443;-79
2022/05/27 03:23:43;;;;;;;1.43;0.90;;;10.70;99.90;;;;;;10303225;28;20498;-79
2022/05/27 03:29:26;;;;;;;3.73;1.10;;;10.80;99.90;;;;;;10327331;28;20195;-79
2022/05/27 03:35:00;;;;;;;2.37;1.20;;;10.80;99.90;;;;;;10329369;28;20220;-80
2022/05/27 03:40:47;;;;;;;2.47;1.20;;;10.90;99.90;;;;;;10342564;28;20220;-79
2022/05/27 03:46:08;;;;;;;3.53;1.83;;;11.00;99.90;;;;;;10328755;28;20244;-80
2022/05/27 03:51:36;;;;;;;4.27;1.50;;;10.90;99.90;;;;;;10318079;28;20210;-81
2022/05/27 03:56:58;;;;;;;8.03;2.40;;;10.90;99.90;;;;;;10301546;28;20232;-79
2022/05/27 04:02:19;;;;;;;6.53;2.20;;;11.00;99.90;;;;;;10349535;28;20197;-77
2022/05/27 04:07:40;;;;;;;3.97;2.07;;;11.10;99.90;;;;;;10341846;28;20229;-79
2022/05/27 04:13:01;;;;;;;3.07;1.70;;;11.10;99.90;;;;;;10355599;28;20219;-79
2022/05/27 04:18:23;;;;;;;5.67;1.57;;;11.30;99.90;;;;;;10341205;28;20417;-79
2022/05/27 04:23:44;;;;;;;2.87;1.67;;;11.40;99.90;;;;;;10355677;28;20203;-79
2022/05/27 04:29:06;;;;;;;3.77;1.63;;;11.40;99.90;;;;;;10354354;28;20296;-80
2022/05/27 04:34:28;;;;;;;4.60;1.13;;;11.40;99.90;;;;;;10340920;28;20204;-80
2022/05/27 04:39:49;;;;;;;5.10;1.70;;;11.40;99.90;;;;;;10340368;28;20335;-79
2022/05/27 04:45:10;;;;;;;2.23;1.10;;;11.50;99.90;;;;;;10340723;28;20208;-79
2022/05/27 04:50:32;;;;;;;4.67;1.73;;;11.40;99.90;;;;;;10354341;28;20232;-79
2022/05/27 04:55:53;;;;;;;2.77;1.23;;;11.50;99.90;;;;;;10353893;28;20232;-81
2022/05/27 05:01:14;;;;;;;2.50;1.37;;;11.50;99.90;;;;;;10354630;28;20202;-79
2022/05/27 05:06:36;;;;;;;1.13;0.70;;;11.60;99.90;;;;;;10339861;28;20235;-79
2022/05/27 05:11:57;;;;;;;3.43;1.00;;;11.70;99.90;;;;;;10354095;28;20195;-79
2022/05/27 05:17:19;;;;;;;2.00;1.40;;;11.80;99.90;;;;;;10353771;28;20228;-79
2022/05/27 05:22:40;;;;;;;1.98;1.33;;;11.90;99.90;;;;;;10353382;28;20190;-79
2022/05/27 05:28:02;;;;;;;2.00;1.10;;;12.00;99.90;;;;;;10352991;28;20200;-79
2022/05/27 05:33:26;;;;;;;1.73;0.90;;;11.90;99.90;;;;;;10324220;28;20209;-79
2022/05/27 05:38:48;;;;;;;5.30;0.90;;;11.90;99.90;;;;;;10339981;28;20267;-80
2022/05/27 05:44:10;;;;;;;2.10;1.00;;;12.00;99.90;;;;;;10360671;28;20207;-79
2022/05/27 05:49:31;;;;;;;1.88;0.82;;;12.20;99.90;;;;;;10346703;28;20208;-79
2022/05/27 05:54:52;;;;;;;3.25;1.00;;;12.50;99.90;;;;;;10347026;28;20220;-80
2022/05/27 06:00:17;;;;;;;2.17;1.00;;;12.60;99.90;;;;;;10359599;28;20209;-79
2022/05/27 06:05:40;;;;;;;1.75;1.00;;;12.90;99.90;;;;;;10361004;28;20232;-79
2022/05/27 06:11:01;;;;;;;4.47;2.33;;;12.90;99.90;;;;;;10360067;28;20224;-79
2022/05/27 06:16:23;;;;;;;1.23;0.85;;;13.00;99.90;;;;;;10346132;28;20250;-78
2022/05/27 06:21:44;;;;;;;1.13;1.00;;;13.00;99.90;;;;;;10345498;28;20201;-79
2022/05/27 06:27:06;;;;;;;7.13;3.67;;;13.20;99.90;;;;;;10358495;28;20205;-79
2022/05/27 06:38:07;;;;;;;4.60;2.85;;;13.10;99.90;;;;;;10347256;28;20311;-79
2022/05/27 06:43:28;;;;;;;1.60;1.23;;;13.30;99.90;;;;;;10321913;28;20228;-79
2022/05/27 06:48:49;;;;;;;5.30;2.60;;;13.60;99.90;;;;;;10358411;28;20233;-79
2022/05/27 06:54:12;;;;;;;2.78;1.90;;;13.70;99.90;;;;;;10344765;28;20210;-79
2022/05/27 06:59:34;;;;;;;1.20;1.10;;;13.60;99.90;;;;;;10330387;28;20773;-79
2022/05/27 07:04:56;;;;;;;2.30;0.93;;;13.60;95.50;;;;;;10358136;28;20212;-79
2022/05/27 07:10:17;;;;;;;3.45;1.65;;;13.50;99.90;;;;;;10334535;28;20245;-81
2022/05/27 07:15:39;;;;;;;3.13;1.67;;;13.20;99.90;;;;;;10350463;28;20471;-80
2022/05/27 07:21:03;;;;;;;4.13;1.35;;;13.10;99.90;;;;;;10337723;28;20277;-80
2022/05/27 07:26:24;;;;;;;7.68;1.55;;;13.20;99.90;;;;;;10351677;28;20286;-79
2022/05/27 07:31:46;;;;;;;2.80;1.45;;;14.10;97.60;;;;;;10330226;28;20229;-80
2022/05/27 07:37:07;;;;;;;9.45;1.60;;;14.90;52.10;;;;;;10337048;28;20264;-79
2022/05/27 07:42:28;;;;;;;7.40;1.70;;;15.10;2.40;;;;;;10350270;28;20211;-79
2022/05/27 07:47:50;;;;;;;9.63;1.87;;;13.40;1.00;;;;;;10339182;28;20248;-80
2022/05/27 07:53:12;;;;;;;6.63;1.70;;;12.70;58.40;;;;;;10311159;28;20224;-80
2022/05/27 07:58:34;;;;;;;6.43;2.10;;;12.20;97.10;;;;;;10308492;28;20238;-80
2022/05/27 08:03:55;;;;;;;6.10;2.17;;;12.40;99.90;;;;;;10325749;28;20204;-79
2022/05/27 08:09:16;;;;;;;6.83;2.17;;;12.60;99.90;;;;;;10310923;28;20398;-80
2022/05/27 08:14:38;;;;;;;4.93;1.80;;;13.60;90.50;;;;;;10310629;28;20344;-80
2022/05/27 08:20:04;;;;;;;7.90;1.93;;;14.50;48.90;;;;;;10341076;28;20263;-79
2022/05/27 08:25:26;;;;;;;11.20;3.10;;;15.10;1.00;;;;;;10355255;28;20298;-79
2022/05/27 08:30:49;;;;;;;4.45;1.55;;;14.90;1.00;;;;;;10349784;28;20192;-79
2022/05/27 08:41:59;;;;;;;3.97;1.60;;;15.60;1.00;;;;;;10295641;28;20270;-82
2022/05/27 08:47:52;;;;;;;6.82;1.50;;;16.00;1.00;;;;;;10346763;28;20577;-80
2022/05/27 08:53:23;;;;;;;7.63;1.83;;;16.40;1.00;;;;;;10335799;28;20206;-82
2022/05/27 09:05:17;;;;;;;5.18;2.05;;;16.70;99.90;;;;;;10316263;28;20203;-80
2022/05/27 09:10:58;;;;;;;5.65;1.40;;;17.00;1.00;;;;;;10343875;28;20384;-79
2022/05/27 09:16:32;;;;;;;4.03;1.02;;;17.00;1.00;;;;;;10354225;28;20761;-79
2022/05/27 09:22:16;;;;;;;6.85;1.23;;;17.30;1.00;;;;;;10343463;28;20274;-79
2022/05/27 09:28:01;;;;;;;9.25;1.17;;;17.30;1.00;;;;;;10342149;28;20230;-80
2022/05/27 09:33:26;;;;;;;6.60;2.28;;;17.80;1.00;;;;;;10357273;28;20242;-81
2022/05/27 09:38:55;;;;;;;6.57;1.60;;;17.90;1.00;;;;;;10355932;28;20243;-82
2022/05/27 09:44:35;;;;;;;13.40;1.58;;;17.70;1.00;;;;;;10305047;28;20198;-83
2022/05/27 09:50:00;;;;;;;6.38;1.75;;;17.70;1.00;;;;;;10325810;28;20232;-88
2022/05/27 09:55:27;;;;;;;13.43;2.03;;;17.80;1.00;;;;;;10345425;28;20244;-81
2022/05/27 10:00:49;;;;;;;5.72;1.50;;;17.50;1.00;;;;;;10340937;28;20282;-80
2022/05/27 10:06:17;;;;;;;5.60;1.30;;;17.60;1.00;;;;;;10341316;28;20381;-78
2022/05/27 10:11:50;;;;;;;8.90;1.75;;;17.00;1.00;;;;;;10340012;28;20249;-81
2022/05/27 10:17:14;;;;;;;3.85;1.35;;;17.20;1.00;;;;;;10338091;28;20277;-79
2022/05/27 10:22:36;;;;;;;6.63;1.55;;;17.30;1.00;;;;;;10355264;28;20277;-80
2022/05/27 10:27:57;;;;;;;7.60;1.10;;;17.00;1.00;;;;;;10334401;28;20578;-87
2022/05/27 10:33:20;;;;;;;5.38;1.50;;;17.20;1.00;;;;;;10334057;28;20223;-85
2022/05/27 10:38:56;;;;;;;4.25;1.13;;;17.30;1.00;;;;;;10325119;28;20243;-84
2022/05/27 10:44:41;;;;;;;2.72;0.95;;;16.60;1.00;;;;;;10307402;28;20206;-83
2022/05/27 10:50:03;;;;;;;5.53;1.25;;;16.30;1.00;;;;;;10334807;28;20394;-81
2022/05/27 10:55:42;;;;;;;3.97;1.10;;;17.00;1.00;;;;;;10352789;28;20251;-80
2022/05/27 11:07:24;;;;;;;2.70;1.30;;;17.10;1.00;;;;;;10342163;28;20486;-80
2022/05/27 11:18:59;;;;;;;2.10;1.13;;;17.60;1.00;;;;;;10340503;28;20235;-81
2022/05/27 11:24:42;;;;;;;2.03;0.98;;;18.40;1.00;;;;;;10307671;28;20204;-82
2022/05/27 11:30:06;;;;;;;6.28;0.90;;;17.90;1.00;;;;;;10351643;28;20384;-82
2022/05/27 11:35:54;;;;;;;4.50;1.20;;;17.20;1.00;;;;;;10332253;28;20243;-82
2022/05/27 11:41:32;;;;;;;2.92;1.10;;;17.70;1.00;;;;;;10348094;28;20503;-77
2022/05/27 11:47:05;;;;;;;6.75;1.63;;;18.30;1.00;;;;;;10334807;28;20236;-80
2022/05/27 11:52:26;;;;;;;8.15;1.70;;;18.10;1.00;;;;;;10335443;28;20204;-81
2022/05/27 11:58:18;;;;;;;9.20;1.83;;;18.50;1.00;;;;;;10351200;28;20552;-78
2022/05/27 12:04:05;;;;;;;3.53;1.25;;;19.00;1.00;;;;;;10339170;28;20215;-79
2022/05/27 12:09:33;;;;;;;6.60;1.67;;;17.90;1.00;;;;;;10348759;28;20205;-83
2022/05/27 12:14:59;;;;;;;5.50;1.25;;;17.10;1.00;;;;;;10321391;28;20216;-84
2022/05/27 12:20:35;;;;;;;9.68;1.50;;;17.20;1.00;;;;;;10336627;28;20288;-79
2022/05/27 12:26:00;;;;;;;3.42;1.33;;;17.80;1.00;;;;;;10335748;28;20201;-82
2022/05/27 12:31:21;;;;;;;5.40;1.25;;;17.60;1.00;;;;;;10346711;28;20221;-81
2022/05/27 12:36:42;;;;;;;6.38;1.48;;;17.80;1.00;;;;;;10347855;28;20431;-79
2022/05/27 12:42:12;;;;;;;5.75;1.67;;;17.80;1.00;;;;;;10336376;28;20200;-86
2022/05/27 12:47:37;;;;;;;8.68;1.20;;;18.10;1.00;;;;;;10338265;28;20203;-79
2022/05/27 12:53:15;;;;;;;4.20;1.45;;;18.10;1.00;;;;;;10333858;28;20205;-78
2022/05/27 13:04:47;;;;;;;6.80;1.70;;;16.90;1.00;;;;;;10328375;28;20530;-79
2022/05/27 13:10:18;;;;;;;13.68;1.45;;;16.30;1.00;;;;;;10333277;28;20270;-79
2022/05/27 13:16:02;;;;;;;5.85;1.27;;;16.60;1.00;;;;;;10328912;28;20259;-80
2022/05/27 13:21:28;;;;;;;6.20;1.38;;;17.00;1.00;;;;;;10345287;28;20209;-79
2022/05/27 13:26:56;;;;;;;3.83;1.27;;;17.00;1.00;;;;;;10338059;28;20282;-82
2022/05/27 13:32:22;;;;;;;7.15;1.40;;;17.10;1.00;;;;;;10314091;28;20208;-79
2022/05/27 13:38:12;;;;;;;5.03;1.77;;;17.50;1.00;;;;;;10307666;28;20455;-86
2022/05/27 13:43:39;;;;;;;8.85;1.50;;;17.20;1.00;;;;;;10307988;28;20209;-79
2022/05/27 13:49:09;;;;;;;2.97;0.90;;;16.40;1.00;;;;;;10291046;28;20271;-78
2022/05/27 13:54:39;;;;;;;4.32;1.20;;;15.50;1.00;;;;;;10330621;28;20382;-80
2022/05/27 14:00:04;;;;;;;5.72;1.50;;;15.30;1.00;;;;;;10350780;28;20259;-78
2022/05/27 14:05:32;;;;;;;7.35;1.73;;;15.60;1.00;;;;;;10335479;28;20210;-89
2022/05/27 14:10:54;;;;;;;8.45;1.58;;;15.80;1.00;;;;;;10311221;28;20206;-79
2022/05/27 14:16:33;;;;;;;7.70;1.65;;;15.90;99.90;;;;;;10334243;28;20413;-77
2022/05/27 14:28:08;;;;;;;4.18;1.55;;;16.00;1.00;;;;;;10339474;28;20204;-80
2022/05/27 14:33:32;;;;;;;10.75;1.85;;;15.80;1.00;;;;;;10341489;28;20378;-79
2022/05/27 14:39:01;;;;;;;4.28;1.38;;;15.80;1.00;;;;;;10320400;28;20270;-79
2022/05/27 14:44:26;;;;;;;8.85;1.77;;;15.80;1.00;;;;;;10342803;28;20246;-78
2022/05/27 14:49:54;;;;;;;7.22;2.17;;;15.60;1.00;;;;;;10331909;28;20216;-80
2022/05/27 14:55:22;;;;;;;13.30;1.95;;;15.70;1.00;;;;;;10319562;28;20464;-82
2022/05/27 15:00:52;;;;;;;9.95;1.85;;;15.70;99.90;;;;;;10314301;28;20230;-79
2022/05/27 15:06:13;;;;;;;4.97;1.92;;;15.50;1.00;;;;;;10336848;28;20217;-78
2022/05/27 15:11:35;;;;;;;8.18;3.20;;;15.40;99.90;;;;;;10331338;28;20197;-78
2022/05/27 15:17:04;;;;;;;3.90;1.67;;;15.40;99.90;;;;;;10356034;28;20219;-78
2022/05/27 15:22:27;;;;;;;3.03;0.90;;;15.10;99.90;;;;;;10342258;28;20300;-79
2022/05/27 15:33:54;;;;;;;3.78;1.17;;;14.00;99.90;;;;;;10353767;28;20470;-78
2022/05/27 15:39:15;;;;;;;4.88;1.60;;;13.80;69.00;;;;;;10354242;28;20278;-78
2022/05/27 15:44:36;;;;;;;7.50;1.35;;;13.80;99.90;;;;;;10326671;28;20246;-79
2022/05/27 15:49:57;;;;;;;3.17;0.90;;;13.90;99.90;;;;;;10316843;28;20201;-79
2022/05/27 15:55:18;;;;;;;2.88;1.15;;;13.70;1.00;;;;;;10315711;28;20248;-79
2022/05/27 16:00:41;;;;;;;5.63;1.20;;;13.60;55.80;;;;;;10315493;28;20264;-80
2022/05/27 16:06:04;;;;;;;5.07;1.30;;;13.60;99.90;;;;;;10316420;28;20286;-78
2022/05/27 16:11:26;;;;;;;6.47;1.30;;;13.70;99.90;;;;;;10326018;28;20359;-78
2022/05/27 16:22:28;;;;;;;3.10;1.10;;;13.70;1.00;;;;;;10355958;28;20221;-78
2022/05/27 16:27:49;;;;;;;1.93;0.70;;;13.50;1.00;;;;;;10355227;28;20208;-79
2022/05/27 16:33:10;;;;;;;3.85;1.50;;;13.50;1.00;;;;;;10355090;28;20203;-79
2022/05/27 16:38:32;;;;;;;4.03;1.00;;;13.60;99.90;;;;;;10340786;28;20247;-78
2022/05/27 16:43:53;;;;;;;2.15;0.90;;;13.60;1.00;;;;;;10338906;28;20249;-79
2022/05/27 16:49:15;;;;;;;7.53;1.47;;;13.60;99.90;;;;;;10314332;28;20252;-79
2022/05/27 16:54:36;;;;;;;4.10;1.40;;;13.50;1.00;;;;;;10315335;28;20274;-78
2022/05/27 16:59:57;;;;;;;3.30;0.83;;;13.40;1.00;;;;;;10327441;28;20276;-78
2022/05/27 17:05:21;;;;;;;3.90;0.97;;;13.20;99.90;;;;;;10327705;28;20421;-79
2022/05/27 17:10:42;;;;;;;3.60;0.83;;;13.00;99.90;;;;;;10335678;28;20229;-81
2022/05/27 17:16:04;;;;;;;3.40;0.97;;;12.90;81.30;;;;;;10353756;28;20207;-79
2022/05/27 17:21:26;;;;;;;2.73;0.77;;;12.90;1.00;;;;;;10353956;28;20201;-79
2022/05/27 17:26:47;;;;;;;2.30;1.00;;;12.90;1.00;;;;;;10341577;28;20193;-80
2022/05/27 17:32:09;;;;;;;3.58;0.98;;;12.90;99.90;;;;;;10362023;28;20207;-79
2022/05/27 17:37:36;;;;;;;3.97;1.00;;;12.80;1.00;;;;;;10348807;28;20248;-78
2022/05/27 17:42:58;;;;;;;3.73;1.00;;;12.70;1.00;;;;;;10361316;28;20246;-81
2022/05/27 17:54:01;;;;;;;2.37;0.97;;;12.60;99.90;;;;;;10346906;28;20241;-78
2022/05/27 17:59:22;;;;;;;4.07;1.00;;;12.70;52.30;;;;;;10361071;28;20224;-80
2022/05/27 18:04:44;;;;;;;3.30;0.90;;;12.60;1.00;;;;;;10360472;28;20221;-79
2022/05/27 18:10:05;;;;;;;2.80;0.87;;;12.50;1.00;;;;;;10345963;28;20221;-79
2022/05/27 18:15:26;;;;;;;3.33;0.80;;;12.50;1.00;;;;;;10361084;28;20197;-79
2022/05/27 18:20:47;;;;;;;2.40;0.90;;;12.50;99.90;;;;;;10359709;28;20272;-79
2022/05/27 18:26:09;;;;;;;1.93;0.77;;;12.40;99.90;;;;;;10360682;28;20539;-79
2022/05/27 18:31:30;;;;;;;1.57;0.70;;;12.40;99.90;;;;;;10360483;28;20194;-79
2022/05/27 18:36:51;;;;;;;1.00;0.50;;;12.30;99.90;;;;;;10359111;28;20247;-81
2022/05/27 18:42:13;;;;;;;6.37;1.30;;;12.30;1.00;;;;;;10358047;28;20395;-79
2022/05/27 18:47:35;;;;;;;1.60;0.80;;;12.10;99.90;;;;;;10359811;28;20432;-81
2022/05/27 18:52:57;;;;;;;3.23;0.90;;;12.00;65.00;;;;;;10344655;28;20287;-79
2022/05/27 18:58:18;;;;;;;3.10;1.10;;;12.00;1.00;;;;;;10359813;28;20224;-81
2022/05/27 19:03:39;;;;;;;3.43;1.30;;;11.90;99.90;;;;;;10359482;28;20197;-81
2022/05/27 19:09:01;;;;;;;2.67;1.20;;;11.90;1.00;;;;;;10344123;28;20278;-80
2022/05/27 19:14:22;;;;;;;2.87;0.80;;;11.70;1.00;;;;;;10320023;28;20523;-81
2022/05/27 19:25:29;;;;;;;3.30;0.90;;;11.20;1.00;;;;;;10357232;28;20218;-81
2022/05/27 19:30:51;;;;;;;2.83;1.00;;;10.90;1.00;;;;;;10343641;28;20482;-81
2022/05/27 19:36:14;;;;;;;3.33;1.17;;;10.80;1.00;;;;;;10343127;28;20254;-81
2022/05/27 19:41:35;;;;;;;3.17;0.90;;;10.80;1.00;;;;;;10356762;28;20272;-81
2022/05/27 19:46:56;;;;;;;2.53;0.90;;;10.80;1.00;;;;;;10342500;28;20210;-81
2022/05/27 19:52:21;;;;;;;2.17;0.93;;;10.70;1.00;;;;;;10357052;28;20199;-81
2022/05/27 20:09:15;;;;;;;2.27;0.80;;;10.50;1.00;;;;;;10356138;28;20365;-81
2022/05/27 20:14:37;;;;;;;1.20;0.80;;;10.40;1.00;;;;;;10355992;28;20462;-80
2022/05/27 20:19:58;;;;;;;5.93;1.60;;;10.30;1.00;;;;;;10356264;28;20302;-81
2022/05/27 20:25:20;;;;;;;1.83;0.87;;;10.20;1.00;;;;;;10341794;28;20209;-82
2022/05/27 20:30:42;;;;;;;2.17;0.97;;;10.10;1.00;;;;;;10327653;28;20282;-78
2022/05/27 20:41:42;;;;;;;1.63;0.67;;;9.90;1.00;;;;;;10355081;28;20204;-80
2022/05/27 20:47:05;;;;;;;2.10;1.10;;;9.90;1.00;;;;;;10340990;28;20206;-80
2022/05/27 20:52:26;;;;;;;2.10;0.90;;;9.80;1.00;;;;;;10355302;28;20253;-81
2022/05/27 20:57:47;;;;;;;2.43;1.20;;;9.80;1.00;;;;;;10340559;28;20248;-78
2022/05/27 21:03:09;;;;;;;2.87;1.20;;;9.70;1.00;;;;;;10353882;28;20534;-79
2022/05/27 21:14:13;;;;;;;1.90;0.80;;;9.60;1.00;;;;;;10353658;28;20199;-80
2022/05/27 21:19:35;;;;;;;2.10;1.00;;;9.60;1.00;;;;;;10353689;28;20274;-80
2022/05/27 21:24:56;;;;;;;5.00;1.30;;;9.60;1.00;;;;;;10340455;28;20254;-80
2022/05/27 21:30:18;;;;;;;4.73;1.80;;;9.60;4.50;;;;;;10354954;28;20221;-80
2022/05/27 21:35:38;;;;;;;2.67;1.00;;;9.60;1.00;;;;;;10339576;28;20265;-80
2022/05/27 21:41:05;;;;;;;4.37;1.10;;;9.60;17.50;;;;;;10339792;28;20301;-78
2022/05/27 21:46:27;;;;;;;2.50;1.07;;;9.60;14.30;;;;;;10313419;28;20200;-78
2022/05/27 21:51:48;;;;;;;5.90;1.30;;;9.50;20.60;;;;;;10300103;28;20195;-78
2022/05/27 21:57:10;;;;;;;4.73;0.90;;;9.50;26.00;;;;;;10313133;28;20267;-78
2022/05/27 22:02:31;;;;;;;2.47;0.70;;;9.30;39.80;;;;;;10315467;28;20203;-77
2022/05/27 22:07:52;;;;;;;7.00;1.73;;;9.30;41.90;;;;;;10313997;28;20201;-77
2022/05/27 22:13:14;;;;;;;2.20;1.00;;;9.30;36.00;;;;;;10353374;28;20379;-77
2022/05/27 22:18:35;;;;;;;3.07;0.97;;;9.20;45.80;;;;;;10346243;28;20225;-77
2022/05/27 22:23:56;;;;;;;4.50;0.80;;;9.20;33.50;;;;;;10360026;28;20212;-77
2022/05/27 22:29:17;;;;;;;1.90;0.87;;;9.20;30.70;;;;;;10360870;28;20276;-78
2022/05/27 22:34:38;;;;;;;2.93;1.07;;;9.20;27.30;;;;;;10345892;28;20385;-78
2022/05/27 22:40:00;;;;;;;1.77;0.80;;;9.20;19.60;;;;;;10359391;28;20413;-78
2022/05/27 22:45:22;;;;;;;2.33;1.07;;;9.20;43.60;;;;;;10359182;28;20260;-78
2022/05/27 22:50:43;;;;;;;3.87;1.07;;;9.30;45.10;;;;;;10358993;28;20201;-78
2022/05/27 22:56:11;;;;;;;2.03;0.73;;;9.30;31.70;;;;;;10359138;28;20264;-81
2022/05/27 23:01:32;;;;;;;2.20;0.93;;;9.30;13.30;;;;;;10359523;28;20229;-81
2022/05/27 23:06:53;;;;;;;3.13;1.03;;;9.30;25.60;;;;;;10345032;28;20204;-81
2022/05/27 23:18:18;;;;;;;2.40;1.10;;;9.20;13.90;;;;;;10358746;28;20406;-80
2022/05/27 23:23:35;;;;;;;2.73;0.80;;;9.10;14.30;;;;;;10357640;28;20199;-81
2022/05/27 23:28:59;;;;;;;2.23;0.90;;;9.00;20.40;;;;;;10358415;28;20243;-81
2022/05/27 23:34:20;;;;;;;1.47;0.70;;;9.10;5.60;;;;;;10357332;28;20565;-80
2022/05/27 23:39:44;;;;;;;3.43;0.80;;;9.10;20.50;;;;;;10358157;28;20238;-78
2022/05/27 23:45:07;;;;;;;2.53;1.00;;;9.00;15.90;;;;;;10357585;28;20230;-78
2022/05/27 23:50:29;;;;;;;3.40;1.07;;;9.00;24.60;;;;;;10356436;28;20276;-80
2022/05/27 23:55:50;;;;;;;2.33;0.73;;;9.00;23.90;;;;;;10357597;28;20208;-80
